Date,TemperatureHighF,TemperatureAvgF,TemperatureLowF,DewpointHighF,DewpointAvgF,DewpointLowF,HumidityHigh,HumidityAvg,HumidityLow,PressureMaxIn,PressureMinIn,WindSpeedMaxMPH,WindSpeedAvgMPH,GustSpeedMaxMPH,PrecipitationSumIn
2013-5-1,55.9,44.6,31.9,28.0,21.3,17.0,67,42,25,30.58,30.33,7,1,11,0.00
2013-5-2,67.4,53.5,39.5,31.0,23.4,16.0,58,33,20,30.58,30.20,12,2,13,0.00
2013-5-3,65.8,58.5,49.8,37.0,31.6,20.0,52,37,25,30.20,30.10,8,3,13,0.00
2013-5-4,67.8,59.1,50.5,35.0,30.8,25.0,52,36,24,30.19,30.01,12,5,20,0.00
2013-5-5,73.3,62.7,49.7,35.0,30.1,26.0,43,30,21,30.01,29.78,12,3,15,0.00
2013-5-6,79.6,67.9,55.2,41.0,32.1,26.0,43,27,18,29.81,29.63,7,2,11,0.00
2013-5-7,81.1,70.2,56.3,44.0,35.1,27.0,48,28,21,29.76,29.66,11,2,14,0.00
2013-5-8,83.0,71.5,58.0,47.0,40.2,33.0,42,33,25,29.87,29.76,5,2,15,0.00
2013-5-9,83.6,72.3,58.8,50.0,40.7,34.0,58,34,18,29.95,29.86,6,2,9,0.00
2013-5-10,86.0,72.9,58.7,49.0,40.4,34.0,55,32,20,30.04,29.94,6,2,12,0.00
2013-5-11,83.1,73.9,63.5,48.0,40.3,30.0,49,30,22,29.99,29.87,9,2,17,0.00
2013-5-12,78.3,70.8,62.3,49.0,44.4,36.0,54,39,27,29.88,29.81,17,5,22,0.00
2013-5-13,63.6,55.4,46.4,50.0,43.9,35.0,87,67,48,29.99,29.82,32,9,38,0.67
2013-5-14,59.9,49.9,41.2,36.0,29.6,22.0,66,47,29,30.11,30.00,12,3,19,0.00
2013-5-15,62.7,53.3,42.9,38.0,31.5,22.0,74,44,33,30.04,29.88,7,1,8,0.00
2013-5-16,60.4,52.9,46.1,46.0,42.0,35.0,87,68,49,29.89,29.81,4,1,7,0.02
2013-5-17,67.0,55.0,44.0,47.0,42.6,40.0,85,65,38,29.88,29.78,6,2,10,0.00
2013-5-18,56.2,50.8,44.6,44.0,40.4,37.0,85,68,53,30.08,29.88,17,4,17,0.11
2013-5-19,66.0,54.2,46.1,45.0,42.0,37.0,79,64,45,30.20,30.09,9,2,15,0.00
2013-5-20,70.9,60.0,49.6,48.0,42.7,40.0,75,55,36,30.20,29.80,5,1,7,0.00
2013-5-21,73.8,56.9,41.2,45.0,39.4,37.0,89,56,28,29.80,29.47,22,5,29,0.26
2013-5-22,46.9,39.9,35.2,38.0,34.5,31.0,89,81,66,30.00,29.68,14,4,19,0.05
2013-5-23,57.5,45.7,33.9,39.0,33.1,28.0,89,65,36,30.02,29.92,7,1,9,0.01
2013-5-24,51.5,45.1,39.4,40.0,36.0,30.0,85,71,52,29.99,29.89,12,4,16,0.00
2013-5-25,60.0,50.8,42.3,41.0,37.5,34.0,79,62,39,30.00,29.94,8,2,13,0.00
2013-5-26,68.4,55.8,42.8,44.0,38.5,35.0,77,55,31,29.95,29.82,12,2,18,0.00
2013-5-27,63.4,54.1,48.1,47.0,42.4,38.0,88,66,40,29.88,29.71,12,3,17,0.08
2013-5-28,61.1,52.4,46.9,49.0,44.9,38.0,89,76,54,29.79,29.70,9,3,14,0.05
2013-5-29,60.2,51.8,47.1,47.0,42.1,37.0,83,70,55,29.80,29.62,17,4,24,0.00
2013-5-30,58.2,50.5,43.2,44.0,38.4,33.0,82,65,48,30.07,29.80,18,9,25,0.01
2013-5-31,61.6,50.7,43.2,41.0,36.3,32.0,74,59,46,30.22,30.08,9,3,15,0.00